KHRI

Hermiston Municipal Airport

Hermiston, Oregon, USA
METAR KHRI 211253Z AUTO 32003KT 10SM CLR M07/M10 A3034 RMK AO2 SLP281 T10671100
Observed Flight Rules
Feb-21 @ 12:53 UTC (23 minutes ago) Visual Flight Rules
Wind Visibility Clouds
320° at 3 knots 10 miles
  • Clear skies
Temperatures Readings
Current -7°C / 19°F
Dewpoint -10°C / 14°F
Humidity 79%
Altimeter 30.34" Hg
Pressure 1028.1 hPa
Elevation 195
METAR KHRI 211253Z AUTO 32003KT 10SM CLR M07/M10 A3034 RMK AO2 SLP281 T10671100
Observed Flight Rules
Feb-21 @ 12:53 UTC
(23 minutes ago)
VFR
Wind Visibility
320° at 3 knots 10 miles
Clouds
  • Clear skies
Temperature Dewpoint
-7°C / 19°F -10°C / 14°F
Humidity Altimeter Pressure
79% 30.34" Hg 1028.1 hPa